createdAt,value
2023-07-03T00:00:51.689Z,7.25
2023-07-03T00:03:53.866Z,6.93
2023-07-03T00:06:56.122Z,7.90
2023-07-03T00:09:58.195Z,9.50
2023-07-03T00:13:00.658Z,7.70
2023-07-03T00:16:04.593Z,8.70
2023-07-03T00:19:06.829Z,7.93
2023-07-03T00:22:08.895Z,9.48
2023-07-03T00:25:11.347Z,9.48
2023-07-03T00:28:13.439Z,7.35
2023-07-03T00:31:15.592Z,8.25
2023-07-03T00:34:18.070Z,8.88
2023-07-03T00:37:22.440Z,8.05
2023-07-03T00:40:24.590Z,7.95
2023-07-03T00:43:27.889Z,8.90
2023-07-03T00:46:30.042Z,8.40
2023-07-03T00:49:32.653Z,8.95
2023-07-03T00:52:34.905Z,7.82
2023-07-03T00:55:38.152Z,9.05
2023-07-03T00:58:40.640Z,10.82
2023-07-03T01:01:59.166Z,9.77
2023-07-03T01:05:15.959Z,8.30
2023-07-03T01:08:18.893Z,9.15
2023-07-03T01:11:22.229Z,10.10
2023-07-03T01:14:26.298Z,9.20
2023-07-03T01:17:30.692Z,12.82
2023-07-03T01:20:38.586Z,10.57
2023-07-03T01:24:01.578Z,10.73
2023-07-03T01:27:05.596Z,10.25
2023-07-03T01:30:13.376Z,9.30
2023-07-03T01:33:19.359Z,10.90
2023-07-03T01:36:22.193Z,12.43
2023-07-03T01:39:24.939Z,13.20
2023-07-03T01:42:29.711Z,9.18
2023-07-03T01:45:40.432Z,9.60
2023-07-03T01:48:42.562Z,10.65
2023-07-03T01:52:04.192Z,10.35
2023-07-03T01:55:09.386Z,9.48
2023-07-03T01:58:20.366Z,10.20
2023-07-03T02:01:43.005Z,9.93
2023-07-03T02:04:59.158Z,11.65
2023-07-03T02:08:02.818Z,12.27
2023-07-03T02:11:05.353Z,14.50
2023-07-03T02:14:09.786Z,10.02
2023-07-03T02:17:13.246Z,11.20
2023-07-03T02:20:15.988Z,12.63
2023-07-03T02:23:18.167Z,13.88
2023-07-03T02:26:20.315Z,11.05
2023-07-03T02:29:22.456Z,10.15
2023-07-03T02:32:24.539Z,12.13
2023-07-03T02:35:26.625Z,10.90
2023-07-03T02:38:28.635Z,12.77
2023-07-03T02:41:30.740Z,10.90
2023-07-03T02:44:32.769Z,10.43
2023-07-03T02:47:39.149Z,12.98
2023-07-03T02:50:41.284Z,12.43
2023-07-03T02:53:43.983Z,12.85
2023-07-03T02:56:46.051Z,10.65
2023-07-03T02:59:48.109Z,13.05
2023-07-03T03:02:50.438Z,11.35
2023-07-03T03:05:52.747Z,10.73
2023-07-03T03:08:54.969Z,12.38
2023-07-03T03:11:57.094Z,10.85
2023-07-03T03:14:59.793Z,13.35
2023-07-03T03:18:05.598Z,9.85
2023-07-03T03:21:07.941Z,12.25
2023-07-03T03:24:10.102Z,11.55
2023-07-03T03:27:12.138Z,11.23
2023-07-03T03:30:14.382Z,11.68
2023-07-03T03:33:16.457Z,10.65
2023-07-03T03:36:18.574Z,10.70
2023-07-03T03:39:20.681Z,10.90
2023-07-03T03:42:22.990Z,12.60
2023-07-03T03:45:25.699Z,14.88
2023-07-03T03:48:29.299Z,11.77
2023-07-03T03:51:31.461Z,13.43
2023-07-03T03:54:33.541Z,12.38
2023-07-03T03:57:35.622Z,13.38
2023-07-03T04:00:37.909Z,12.20
2023-07-03T04:03:40.463Z,12.80
2023-07-03T04:06:42.895Z,11.75
2023-07-03T04:09:44.989Z,11.93
2023-07-03T04:12:47.098Z,10.82
2023-07-03T04:16:09.866Z,9.25
2023-07-03T04:19:12.140Z,10.10
2023-07-03T04:22:14.245Z,9.68
2023-07-03T04:25:16.403Z,10.80
2023-07-03T04:28:20.962Z,11.57
2023-07-03T04:31:23.071Z,9.10
2023-07-03T04:34:25.264Z,10.30
2023-07-03T04:37:28.097Z,10.50
2023-07-03T04:40:31.229Z,14.02
2023-07-03T04:43:33.394Z,10.05
2023-07-03T04:46:36.159Z,12.07
2023-07-03T04:49:38.261Z,11.95
2023-07-03T04:52:40.453Z,13.30
2023-07-03T04:55:42.830Z,11.95
2023-07-03T04:58:44.946Z,12.90
2023-07-03T05:01:47.239Z,11.27
2023-07-03T05:04:49.432Z,14.25
2023-07-03T05:07:51.569Z,13.80
2023-07-03T05:10:53.612Z,11.20
2023-07-03T05:13:55.672Z,11.30
2023-07-03T05:16:57.699Z,12.35
2023-07-03T05:19:59.849Z,11.38
2023-07-03T05:23:01.905Z,11.38
2023-07-03T05:26:04.544Z,11.35
2023-07-03T05:29:06.895Z,10.25
2023-07-03T05:32:09.352Z,13.20
2023-07-03T05:35:11.764Z,10.15
2023-07-03T05:38:13.792Z,14.73
2023-07-03T05:41:16.166Z,11.60
2023-07-03T05:44:18.313Z,16.92
2023-07-03T05:47:20.539Z,12.77
2023-07-03T05:50:22.750Z,14.48
2023-07-03T05:53:25.231Z,14.55
2023-07-03T05:56:29.699Z,11.85
2023-07-03T05:59:32.761Z,14.55
2023-07-03T06:02:37.078Z,14.07
2023-07-03T06:05:39.178Z,11.65
2023-07-03T06:08:41.742Z,14.32
2023-07-03T06:11:43.814Z,12.85
2023-07-03T06:14:46.040Z,13.80
2023-07-03T06:17:48.245Z,12.52
2023-07-03T06:20:50.581Z,14.07
2023-07-03T06:23:52.625Z,13.85
2023-07-03T06:26:54.901Z,13.90
2023-07-03T06:29:57.034Z,13.93
2023-07-03T06:32:59.296Z,16.27
2023-07-03T06:36:01.375Z,15.48
2023-07-03T06:39:05.999Z,12.45
2023-07-03T06:42:08.682Z,13.45
2023-07-03T06:45:11.235Z,15.10
2023-07-03T06:48:13.379Z,16.77
2023-07-03T06:51:15.925Z,16.95
2023-07-03T06:54:18.473Z,13.73
2023-07-03T06:57:20.745Z,16.27
2023-07-03T07:00:23.001Z,13.60
2023-07-03T07:03:25.403Z,16.58
2023-07-03T07:06:31.574Z,14.73
2023-07-03T07:09:34.625Z,15.50
2023-07-03T07:12:36.701Z,17.13
2023-07-03T07:15:39.815Z,15.43
2023-07-03T07:18:42.614Z,18.38
2023-07-03T07:21:45.682Z,16.02
2023-07-03T07:24:47.810Z,16.60
2023-07-03T07:27:49.904Z,12.95
2023-07-03T07:30:52.027Z,16.58
2023-07-03T07:33:54.447Z,12.95
2023-07-03T07:36:56.615Z,14.50
2023-07-03T07:39:58.659Z,14.50
2023-07-03T07:43:00.782Z,14.02
2023-07-03T07:46:02.932Z,13.13
2023-07-03T07:49:06.021Z,17.55
2023-07-03T07:52:08.488Z,13.88
2023-07-03T07:55:10.925Z,15.25
2023-07-03T07:58:14.533Z,12.88
2023-07-03T08:01:17.364Z,14.98
2023-07-03T08:04:19.682Z,15.30
2023-07-03T08:07:21.927Z,13.60
2023-07-03T08:10:24.111Z,12.52
2023-07-03T08:13:26.856Z,15.50
2023-07-03T08:16:29.106Z,13.85
2023-07-03T08:19:31.272Z,15.63
2023-07-03T08:22:33.291Z,14.05
2023-07-03T08:25:35.859Z,15.38
2023-07-03T08:28:37.887Z,16.85
2023-07-03T08:31:40.024Z,14.20
2023-07-03T08:38:04.205Z,16.90
2023-07-03T08:41:06.342Z,17.40
2023-07-03T08:44:10.170Z,16.20
2023-07-03T08:47:19.753Z,16.75
2023-07-03T08:50:35.679Z,17.17
2023-07-03T08:53:44.896Z,14.27
2023-07-03T08:56:49.005Z,19.27
2023-07-03T08:59:53.339Z,17.08
2023-07-03T09:03:12.684Z,18.02
2023-07-03T09:06:30.158Z,16.95
2023-07-03T09:09:59.105Z,14.70
2023-07-03T09:13:10.033Z,16.75
2023-07-03T09:16:23.484Z,17.77
2023-07-03T09:19:27.920Z,15.70
2023-07-03T09:22:57.099Z,19.92
2023-07-03T09:26:45.003Z,18.38
2023-07-03T09:29:47.875Z,19.85
2023-07-03T09:32:49.981Z,20.17
2023-07-03T09:35:52.886Z,19.58
2023-07-03T09:38:55.205Z,21.85
2023-07-03T09:42:07.265Z,18.63
2023-07-03T09:45:21.488Z,19.05
2023-07-03T09:48:31.123Z,17.50
2023-07-03T09:51:34.538Z,17.05
2023-07-03T09:54:44.286Z,16.13
2023-07-03T09:57:46.366Z,16.90
2023-07-03T10:00:51.498Z,15.30
2023-07-03T10:07:18.920Z,15.52
2023-07-03T10:13:31.880Z,18.88
2023-07-03T10:16:35.174Z,17.83
2023-07-03T10:19:37.738Z,18.33
2023-07-03T10:22:42.715Z,14.52
2023-07-03T10:25:52.368Z,15.15
2023-07-03T10:28:58.170Z,12.98
2023-07-03T10:32:09.737Z,12.88
2023-07-03T10:35:28.996Z,14.90
2023-07-03T10:38:49.113Z,12.60
2023-07-03T10:42:04.432Z,11.30
2023-07-03T10:45:10.984Z,13.50
2023-07-03T10:48:22.743Z,13.10
2023-07-03T10:51:55.755Z,14.00
2023-07-03T10:55:14.232Z,13.38
2023-07-03T10:58:20.786Z,11.40
2023-07-03T11:01:52.569Z,12.90
2023-07-03T11:05:04.229Z,15.25
2023-07-03T11:08:22.022Z,15.55
2023-07-03T11:11:52.220Z,12.93
2023-07-03T11:15:06.402Z,19.38
2023-07-03T11:25:10.980Z,16.25
2023-07-03T11:28:25.155Z,13.90
2023-07-03T11:31:29.158Z,15.25
2023-07-03T11:40:55.652Z,13.85
2023-07-03T11:44:15.945Z,14.65
2023-07-03T11:47:39.628Z,12.73
2023-07-03T11:50:41.742Z,14.85
2023-07-03T11:53:53.817Z,11.98
2023-07-03T11:57:00.833Z,10.38
2023-07-03T12:00:23.879Z,12.55
2023-07-03T12:03:56.745Z,13.27
2023-07-03T12:06:58.875Z,11.95
2023-07-03T12:10:29.831Z,12.02
2023-07-03T12:13:40.998Z,10.80
2023-07-03T12:16:48.968Z,11.85
2023-07-03T12:20:14.626Z,10.00
2023-07-03T12:23:41.584Z,9.90
2023-07-03T12:26:55.446Z,10.52
2023-07-03T12:29:57.576Z,13.45
2023-07-03T12:33:00.561Z,13.55
2023-07-03T12:36:02.779Z,12.05
2023-07-03T12:39:15.860Z,16.13
2023-07-03T12:42:22.954Z,11.60
2023-07-03T12:45:27.827Z,11.93
2023-07-03T12:48:30.210Z,12.57
2023-07-03T12:51:37.651Z,13.13
2023-07-03T12:54:39.789Z,12.38
2023-07-03T12:57:42.635Z,11.65
2023-07-03T13:00:45.698Z,14.48
2023-07-03T13:03:48.902Z,12.07
2023-07-03T13:06:51.003Z,15.63
2023-07-03T13:09:55.823Z,14.50
2023-07-03T13:13:04.085Z,10.32
2023-07-03T13:16:17.168Z,13.52
2023-07-03T13:19:45.464Z,12.30
2023-07-03T13:22:53.677Z,12.23
2023-07-03T13:25:56.926Z,12.45
2023-07-03T13:29:01.508Z,10.60
2023-07-03T13:32:21.747Z,12.57
2023-07-03T13:35:30.107Z,12.52
2023-07-03T13:41:35.186Z,12.38
2023-07-03T13:44:37.297Z,11.00
2023-07-03T13:47:39.440Z,9.68
2023-07-03T13:50:41.689Z,14.70
2023-07-03T13:53:43.734Z,10.07
2023-07-03T13:56:46.487Z,10.63
2023-07-03T13:59:48.614Z,12.88
2023-07-03T14:02:50.866Z,12.00
2023-07-03T14:05:53.566Z,11.65
2023-07-03T14:08:56.232Z,14.30
2023-07-03T14:11:58.299Z,10.82
2023-07-03T14:15:00.407Z,12.52
2023-07-03T14:18:02.622Z,11.43
2023-07-03T14:21:05.566Z,11.70
2023-07-03T14:24:07.742Z,9.52
2023-07-03T14:27:10.409Z,10.32
2023-07-03T14:30:13.590Z,12.07
2023-07-03T14:33:15.877Z,12.40
2023-07-03T14:36:18.035Z,10.82
2023-07-03T14:39:20.123Z,9.77
2023-07-03T14:42:22.268Z,10.93
2023-07-03T14:45:24.484Z,13.65
2023-07-03T14:48:26.584Z,11.00
2023-07-03T14:51:29.031Z,11.65
2023-07-03T14:54:31.179Z,10.50
2023-07-03T14:57:33.563Z,11.48
2023-07-03T15:00:37.477Z,12.10
2023-07-03T15:03:39.636Z,12.60
2023-07-03T15:06:42.284Z,14.73
2023-07-03T15:09:44.409Z,14.57
2023-07-03T15:12:47.193Z,16.13
2023-07-03T15:15:50.946Z,13.48
2023-07-03T15:18:53.318Z,12.32
2023-07-03T15:21:55.456Z,16.17
2023-07-03T15:24:57.905Z,13.32
2023-07-03T15:27:59.944Z,12.05
2023-07-03T15:31:04.949Z,18.23
2023-07-03T15:34:07.083Z,12.20
2023-07-03T15:37:09.303Z,19.67
2023-07-03T15:40:11.911Z,11.75
2023-07-03T15:43:14.038Z,10.95
2023-07-03T15:46:17.602Z,12.00
2023-07-03T15:49:19.673Z,10.98
2023-07-03T15:52:21.695Z,13.23
2023-07-03T15:55:23.820Z,10.82
2023-07-03T15:58:27.000Z,11.05
2023-07-03T16:01:30.380Z,10.10
2023-07-03T16:04:32.586Z,13.68
2023-07-03T16:07:36.014Z,11.02
2023-07-03T16:10:39.656Z,13.23
2023-07-03T16:13:42.313Z,12.82
2023-07-03T16:16:44.913Z,12.43
2023-07-03T16:20:10.425Z,14.30
2023-07-03T16:23:12.963Z,11.23
2023-07-03T16:26:15.469Z,11.52
2023-07-03T16:29:18.021Z,13.05
2023-07-03T16:32:20.128Z,13.70
2023-07-03T16:35:22.294Z,12.77
2023-07-03T16:38:24.556Z,12.27
2023-07-03T16:41:29.137Z,11.00
2023-07-03T16:44:31.193Z,16.50
2023-07-03T16:47:33.531Z,13.48
2023-07-03T16:50:35.718Z,12.73
2023-07-03T16:53:41.674Z,12.05
2023-07-03T16:56:44.009Z,13.80
2023-07-03T16:59:46.034Z,10.65
2023-07-03T17:02:48.429Z,13.70
2023-07-03T17:05:51.001Z,12.43
2023-07-03T17:08:55.582Z,13.00
2023-07-03T17:11:58.535Z,12.77
2023-07-03T17:15:00.590Z,13.23
2023-07-03T17:18:03.253Z,14.77
2023-07-03T17:21:05.709Z,14.20
2023-07-03T17:24:08.466Z,13.30
2023-07-03T17:27:10.897Z,12.57
2023-07-03T17:30:13.509Z,12.32
2023-07-03T17:33:15.691Z,12.70
2023-07-03T17:36:18.321Z,12.68
2023-07-03T17:39:20.491Z,13.65
2023-07-03T17:42:23.109Z,15.18
2023-07-03T17:45:26.865Z,13.07
2023-07-03T17:48:29.320Z,13.18
2023-07-03T17:51:35.505Z,11.73
2023-07-03T17:54:38.613Z,13.55
2023-07-03T17:57:40.998Z,13.43
2023-07-03T18:00:43.534Z,14.88
2023-07-03T18:03:47.849Z,13.80
2023-07-03T18:06:50.118Z,13.88
2023-07-03T18:09:52.693Z,19.08
2023-07-03T18:12:55.311Z,14.35
2023-07-03T18:15:58.019Z,14.45
2023-07-03T18:19:01.015Z,12.15
2023-07-03T18:22:03.386Z,14.30
2023-07-03T18:25:06.910Z,18.83
2023-07-03T18:28:10.161Z,13.45
2023-07-03T18:31:12.660Z,13.57
2023-07-03T18:34:15.174Z,15.02
2023-07-03T18:37:18.170Z,14.85
2023-07-03T18:40:21.368Z,13.80
2023-07-03T18:43:24.699Z,15.57
2023-07-03T18:46:27.368Z,18.27
2023-07-03T18:49:30.428Z,15.73
2023-07-03T18:52:32.795Z,15.07
2023-07-03T18:55:35.081Z,15.10
2023-07-03T18:58:37.955Z,15.82
2023-07-03T19:01:42.132Z,13.60
2023-07-03T19:04:47.064Z,19.60
2023-07-03T19:07:49.725Z,13.30
2023-07-03T19:10:52.371Z,16.40
2023-07-03T19:13:54.733Z,16.27
2023-07-03T19:16:58.066Z,14.93
2023-07-03T19:20:01.146Z,18.52
2023-07-03T19:23:04.615Z,17.67
2023-07-03T19:26:08.828Z,17.00
2023-07-03T19:29:12.764Z,16.02
2023-07-03T19:32:15.090Z,15.00
2023-07-03T19:35:17.872Z,15.15
2023-07-03T19:38:20.573Z,15.27
2023-07-03T19:41:23.131Z,16.42
2023-07-03T19:44:27.184Z,18.67
2023-07-03T19:47:29.758Z,17.02
2023-07-03T19:50:33.942Z,16.23
2023-07-03T19:53:36.656Z,15.13
2023-07-03T19:56:39.765Z,14.52
2023-07-03T19:59:41.987Z,14.43
2023-07-03T20:02:45.657Z,17.25
2023-07-03T20:05:48.889Z,15.30
2023-07-03T20:08:55.036Z,14.90
2023-07-03T20:11:57.709Z,15.75
2023-07-03T20:15:00.814Z,17.52
2023-07-03T20:18:03.024Z,18.25
2023-07-03T20:21:06.878Z,16.30
2023-07-03T20:24:10.357Z,17.13
2023-07-03T20:27:12.925Z,17.13
2023-07-03T20:30:15.625Z,16.25
2023-07-03T20:33:18.482Z,18.08
2023-07-03T20:36:21.128Z,15.73
2023-07-03T20:39:23.618Z,18.45
2023-07-03T20:42:28.455Z,15.30
2023-07-03T20:45:31.084Z,15.25
2023-07-03T20:48:33.630Z,16.92
2023-07-03T20:51:36.682Z,18.38
2023-07-03T20:54:44.386Z,17.08
2023-07-03T20:57:46.653Z,17.10
2023-07-03T21:00:48.696Z,17.13
2023-07-03T21:03:51.473Z,17.55
2023-07-03T21:06:56.437Z,18.90
2023-07-03T21:09:58.670Z,19.58
2023-07-03T21:13:00.827Z,18.00
2023-07-03T21:16:03.246Z,17.35
2023-07-03T21:19:09.585Z,20.90
2023-07-03T21:22:11.739Z,19.55
2023-07-03T21:25:14.058Z,20.13
2023-07-03T21:28:16.127Z,22.58
2023-07-03T21:31:20.917Z,17.67
2023-07-03T21:34:23.032Z,18.77
2023-07-03T21:37:25.975Z,20.52
2023-07-03T21:40:29.466Z,19.65
2023-07-03T21:43:32.368Z,21.65
2023-07-03T21:46:34.541Z,18.98
2023-07-03T21:49:36.702Z,22.20
2023-07-03T21:52:38.785Z,20.58
2023-07-03T21:55:40.858Z,18.67
2023-07-03T21:58:44.492Z,20.23
2023-07-03T22:01:51.526Z,21.08
2023-07-03T22:04:54.582Z,21.70
2023-07-03T22:07:56.703Z,17.80
2023-07-03T22:10:58.814Z,20.17
2023-07-03T22:14:01.523Z,18.02
2023-07-03T22:17:03.856Z,19.55
2023-07-03T22:20:10.094Z,18.88
2023-07-03T22:23:12.313Z,19.92
2023-07-03T22:26:14.789Z,19.30
2023-07-03T22:29:17.679Z,23.38
2023-07-03T22:32:20.018Z,19.65
2023-07-03T22:35:22.115Z,17.85
2023-07-03T22:38:24.400Z,16.63
2023-07-03T22:41:26.549Z,17.50
2023-07-03T22:44:28.669Z,19.55
2023-07-03T22:47:31.369Z,18.85
2023-07-03T22:50:34.183Z,17.52
2023-07-03T22:53:37.989Z,17.88
2023-07-03T22:56:40.108Z,17.65
2023-07-03T22:59:42.224Z,17.08
2023-07-03T23:02:45.056Z,16.05
2023-07-03T23:05:47.256Z,13.45
2023-07-03T23:08:50.660Z,14.30
2023-07-03T23:11:53.292Z,18.20
2023-07-03T23:14:56.620Z,15.15
2023-07-03T23:17:59.709Z,12.18
2023-07-03T23:21:10.310Z,14.02
2023-07-03T23:24:12.475Z,11.18
2023-07-03T23:27:15.537Z,11.02
2023-07-03T23:30:18.042Z,13.35
2023-07-03T23:33:21.689Z,12.93
2023-07-03T23:36:23.979Z,10.90
2023-07-03T23:39:27.466Z,13.75
2023-07-03T23:42:29.481Z,13.07
2023-07-03T23:45:33.594Z,14.55
2023-07-03T23:48:37.498Z,14.38
2023-07-03T23:51:39.671Z,12.73
2023-07-03T23:54:41.743Z,11.88
2023-07-03T23:57:45.774Z,14.65
